Wetterstation Vordersexau
Wetterdaten: Woche 19.09.11 - 25.09.11 (KW38)
Datum Zeit Temp. A. Feuchte A. Luftdruck Regen Wind Richtung Taupunkt Windchill Windben
19.09.2011 00:00 9,1 C 84 % 1009,0 hPa 0,0 l/m 5,2 km/h NO 6,5 C 9,1 C 2,9 km/h
19.09.2011 01:00 9,8 C 81 % 1008,9 hPa 0,0 l/m 0,0 km/h NO 6,7 C 9,8 C 0,0 km/h
19.09.2011 02:00 8,9 C 83 % 1008,7 hPa 0,0 l/m 0,0 km/h NO 6,2 C 8,9 C 0,0 km/h
19.09.2011 03:00 9,2 C 84 % 1008,8 hPa 0,0 l/m 0,0 km/h SO 6,6 C 9,2 C 0,0 km/h
19.09.2011 04:00 10,4 C 82 % 1008,4 hPa 0,0 l/m 5,2 km/h O-NO 7,5 C 10,4 C 2,9 km/h
19.09.2011 05:00 9,8 C 80 % 1008,4 hPa 0,0 l/m 0,0 km/h SO 6,5 C 9,8 C 0,0 km/h
19.09.2011 06:00 9,8 C 83 % 1008,8 hPa 0,0 l/m 0,0 km/h W-SW 7,1 C 9,8 C 0,0 km/h
19.09.2011 07:00 11,3 C 80 % 1008,9 hPa 0,0 l/m 0,0 km/h SW 8,0 C 11,3 C 0,0 km/h
19.09.2011 08:00 11,5 C 80 % 1009,3 hPa 0,0 l/m 0,0 km/h W 8,2 C 11,5 C 0,0 km/h
19.09.2011 09:00 12,3 C 79 % 1009,8 hPa 0,0 l/m 3,2 km/h W 8,8 C 12,3 C 1,8 km/h
19.09.2011 10:00 12,5 C 82 % 1010,5 hPa 0,0 l/m 4,5 km/h W 9,5 C 12,5 C 2,5 km/h
19.09.2011 11:00 13,3 C 80 % 1010,9 hPa 0,0 l/m 0,6 km/h W 9,9 C 13,3 C 0,4 km/h
19.09.2011 12:00 15,5 C 73 % 1011,4 hPa 0,0 l/m 7,1 km/h NO 10,7 C 15,1 C 4,0 km/h
19.09.2011 13:00 19,4 C 60 % 1011,5 hPa 0,0 l/m 3,9 km/h NW 11,4 C 19,4 C 2,2 km/h
19.09.2011 14:00 16,4 C 64 % 1012,1 hPa 0,0 l/m 0,0 km/h NO 9,6 C 16,4 C 0,0 km/h
19.09.2011 15:00 13,9 C 80 % 1013,2 hPa 0,7 l/m 0,0 km/h S 10,5 C 13,9 C 0,0 km/h
19.09.2011 16:00 14,7 C 79 % 1013,8 hPa 0,4 l/m 0,0 km/h S-SO 11,1 C 14,7 C 0,0 km/h
19.09.2011 17:00 17,0 C 68 % 1014,2 hPa 0,0 l/m 0,0 km/h SW 11,0 C 17,0 C 0,0 km/h
19.09.2011 18:00 16,5 C 67 % 1015,1 hPa 0,0 l/m 0,0 km/h SO 10,4 C 16,5 C 0,0 km/h
19.09.2011 19:00 13,1 C 81 % 1016,1 hPa 0,4 l/m 0,0 km/h SO 9,9 C 13,1 C 0,0 km/h
19.09.2011 20:00 12,1 C 84 % 1017,2 hPa 0,0 l/m 2,6 km/h SO 9,5 C 12,1 C 1,4 km/h
19.09.2011 21:00 11,4 C 84 % 1018,3 hPa 0,0 l/m 0,0 km/h SO 8,8 C 11,4 C 0,0 km/h
19.09.2011 22:00 10,5 C 84 % 1019,3 hPa 0,0 l/m 0,0 km/h SO 7,9 C 10,5 C 0,0 km/h
19.09.2011 23:00 10,8 C 83 % 1019,7 hPa 0,0 l/m 0,0 km/h SO 8,0 C 10,8 C 0,0 km/h
20.09.2011 00:00 10,9 C 83 % 1020,4 hPa 0,0 l/m 0,0 km/h SO 8,1 C 10,9 C 0,0 km/h
20.09.2011 01:00 10,9 C 82 % 1020,6 hPa 0,0 l/m 0,0 km/h O-NO 7,9 C 10,9 C 0,0 km/h
20.09.2011 02:00 9,8 C 83 % 1020,8 hPa 0,0 l/m 0,0 km/h O-SO 7,1 C 9,8 C 0,0 km/h
20.09.2011 03:00 8,5 C 83 % 1021,6 hPa 0,0 l/m 0,0 km/h O-SO 5,8 C 8,5 C 0,0 km/h
20.09.2011 04:00 7,7 C 83 % 1021,8 hPa 0,4 l/m 0,0 km/h O 5,0 C 7,7 C 0,0 km/h
20.09.2011 05:00 7,3 C 82 % 1021,9 hPa 0,0 l/m 0,0 km/h O-SO 4,4 C 7,3 C 0,0 km/h
20.09.2011 06:00 6,1 C 84 % 1022,1 hPa 0,0 l/m 0,0 km/h NO 3,6 C 6,1 C 0,0 km/h
20.09.2011 07:00 6,7 C 82 % 1022,4 hPa 0,0 l/m 0,0 km/h SO 3,8 C 6,7 C 0,0 km/h
20.09.2011 08:00 8,3 C 81 % 1022,9 hPa 0,0 l/m 0,0 km/h O-SO 5,2 C 8,3 C 0,0 km/h
20.09.2011 09:00 12,0 C 71 % 1023,3 hPa 0,0 l/m 0,0 km/h N-NW 6,9 C 12,0 C 0,0 km/h
20.09.2011 10:00 18,3 C 70 % 1023,9 hPa 0,0 l/m 4,5 km/h N-NO 12,7 C 18,3 C 2,5 km/h
20.09.2011 11:00 22,8 C 55 % 1023,7 hPa 0,0 l/m 0,0 km/h NW 13,3 C 22,8 C 0,0 km/h
20.09.2011 12:00 23,3 C 53 % 1023,2 hPa 0,0 l/m 0,0 km/h N-NO 13,2 C 23,3 C 0,0 km/h
20.09.2011 13:00 23,0 C 49 % 1022,6 hPa 0,0 l/m 9,1 km/h W-NW 11,7 C 22,2 C 5,0 km/h
20.09.2011 14:00 23,4 C 45 % 1021,9 hPa 0,0 l/m 13,0 km/h W 10,8 C 21,7 C 7,2 km/h
20.09.2011 15:00 24,8 C 42 % 1021,4 hPa 0,0 l/m 0,0 km/h N-NW 11,0 C 24,8 C 0,0 km/h
20.09.2011 16:00 28,0 C 36 % 1021,0 hPa 0,0 l/m 0,0 km/h W-NW 11,5 C 28,0 C 0,0 km/h
20.09.2011 17:00 27,5 C 36 % 1021,0 hPa 0,0 l/m 7,8 km/h N-NO 11,1 C 27,3 C 4,3 km/h
20.09.2011 18:00 26,6 C 37 % 1020,8 hPa 0,0 l/m 7,8 km/h S-SO 10,7 C 26,3 C 4,3 km/h
20.09.2011 19:00 17,1 C 58 % 1020,8 hPa 0,0 l/m 1,9 km/h SO 8,8 C 17,1 C 1,1 km/h
20.09.2011 20:00 12,8 C 75 % 1021,3 hPa 0,0 l/m 0,0 km/h SO 8,5 C 12,8 C 0,0 km/h
20.09.2011 21:00 11,1 C 80 % 1021,3 hPa 0,0 l/m 0,0 km/h SO 7,8 C 11,1 C 0,0 km/h
20.09.2011 22:00 10,4 C 82 % 1021,4 hPa 0,0 l/m 25,3 km/h SO 7,5 C 2,3 C 14,0 km/h
20.09.2011 23:00 9,9 C 83 % 1020,9 hPa 0,0 l/m 0,6 km/h SO 7,2 C 9,9 C 0,4 km/h
21.09.2011 00:00 9,6 C 83 % 1020,6 hPa 0,0 l/m 7,8 km/h SO 6,9 C 8,6 C 4,3 km/h
21.09.2011 01:00 8,9 C 84 % 1020,6 hPa 0,0 l/m 0,0 km/h O 6,3 C 8,9 C 0,0 km/h
21.09.2011 02:00 7,9 C 84 % 1020,5 hPa 0,0 l/m 0,0 km/h NO 5,4 C 7,9 C 0,0 km/h
21.09.2011 03:00 7,2 C 84 % 1020,6 hPa 0,0 l/m 0,0 km/h NO 4,7 C 7,2 C 0,0 km/h
21.09.2011 04:00 6,9 C 84 % 1020,2 hPa 0,0 l/m 0,0 km/h O-NO 4,4 C 6,9 C 0,0 km/h
21.09.2011 05:00 6,6 C 84 % 1020,1 hPa 0,0 l/m 0,0 km/h O-NO 4,1 C 6,6 C 0,0 km/h
21.09.2011 06:00 6,2 C 84 % 1020,2 hPa 0,0 l/m 0,0 km/h NO 3,7 C 6,2 C 0,0 km/h
21.09.2011 07:00 6,1 C 84 % 1020,2 hPa 0,0 l/m 0,0 km/h SO 3,6 C 6,1 C 0,0 km/h
21.09.2011 08:00 7,8 C 83 % 1020,5 hPa 0,0 l/m 0,0 km/h O-NO 5,1 C 7,8 C 0,0 km/h
21.09.2011 09:00 13,6 C 82 % 1020,4 hPa 0,0 l/m 0,0 km/h W-NW 10,6 C 13,6 C 0,0 km/h
21.09.2011 10:00 19,1 C 64 % 1020,5 hPa 0,0 l/m 0,0 km/h W-NW 12,1 C 19,1 C 0,0 km/h
21.09.2011 11:00 23,7 C 50 % 1020,1 hPa 0,0 l/m 0,0 km/h NO 12,6 C 23,7 C 0,0 km/h
21.09.2011 12:00 24,1 C 47 % 1019,6 hPa 0,0 l/m 0,0 km/h W-NW 12,1 C 24,1 C 0,0 km/h
21.09.2011 13:00 24,0 C 43 % 1019,1 hPa 0,0 l/m 0,0 km/h W-NW 10,6 C 24,0 C 0,0 km/h
21.09.2011 14:00 24,8 C 39 % 1018,5 hPa 0,0 l/m 0,0 km/h N-NW 9,9 C 24,8 C 0,0 km/h
21.09.2011 15:00 27,8 C 33 % 1017,9 hPa 0,0 l/m 0,0 km/h S-SW 10,0 C 27,8 C 0,0 km/h
21.09.2011 16:00 30,4 C 31 % 1017,5 hPa 0,0 l/m 0,0 km/h W-NW 11,3 C 30,4 C 0,0 km/h
21.09.2011 17:00 30,6 C 32 % 1017,7 hPa 0,0 l/m 0,0 km/h NW 12,0 C 30,6 C 0,0 km/h
21.09.2011 18:00 27,5 C 36 % 1017,8 hPa 0,0 l/m 0,0 km/h NW 11,1 C 27,5 C 0,0 km/h
21.09.2011 19:00 17,4 C 58 % 1017,8 hPa 0,0 l/m 0,0 km/h SO 9,1 C 17,4 C 0,0 km/h
21.09.2011 20:00 13,3 C 71 % 1018,2 hPa 0,0 l/m 0,0 km/h S-SO 8,2 C 13,3 C 0,0 km/h
21.09.2011 21:00 12,1 C 78 % 1018,4 hPa 0,0 l/m 0,0 km/h NO 8,4 C 12,1 C 0,0 km/h
21.09.2011 22:00 11,5 C 80 % 1018,4 hPa 0,0 l/m 0,0 km/h SO 8,2 C 11,5 C 0,0 km/h
21.09.2011 23:00 10,9 C 82 % 1018,6 hPa 0,0 l/m 0,0 km/h NO 7,9 C 10,9 C 0,0 km/h
22.09.2011 00:00 10,2 C 83 % 1018,7 hPa 0,0 l/m 0,0 km/h NO 7,4 C 10,2 C 0,0 km/h
22.09.2011 01:00 9,8 C 83 % 1018,7 hPa 0,0 l/m 0,0 km/h NO 7,1 C 9,8 C 0,0 km/h
22.09.2011 02:00 9,4 C 84 % 1018,6 hPa 0,0 l/m 0,0 km/h O-SO 6,8 C 9,4 C 0,0 km/h
22.09.2011 03:00 9,0 C 84 % 1018,7 hPa 0,0 l/m 0,0 km/h NO 6,4 C 9,0 C 0,0 km/h
22.09.2011 04:00 8,6 C 84 % 1018,8 hPa 0,0 l/m 0,0 km/h NO 6,1 C 8,6 C 0,0 km/h
22.09.2011 05:00 8,3 C 83 % 1018,5 hPa 0,0 l/m 0,0 km/h O-NO 5,6 C 8,3 C 0,0 km/h
22.09.2011 06:00 7,7 C 84 % 1018,6 hPa 0,0 l/m 0,0 km/h NO 5,2 C 7,7 C 0,0 km/h
22.09.2011 07:00 8,1 C 83 % 1019,0 hPa 0,0 l/m 0,0 km/h O-NO 5,4 C 8,1 C 0,0 km/h
22.09.2011 08:00 9,5 C 82 % 1019,5 hPa 0,0 l/m 0,0 km/h SO 6,6 C 9,5 C 0,0 km/h
22.09.2011 09:00 13,6 C 83 % 1019,7 hPa 0,0 l/m 0,0 km/h NO 10,8 C 13,6 C 0,0 km/h
22.09.2011 10:00 16,5 C 77 % 1019,8 hPa 0,0 l/m 0,0 km/h N-NW 12,5 C 16,5 C 0,0 km/h
22.09.2011 11:00 21,2 C 61 % 1019,7 hPa 0,0 l/m 0,0 km/h N-NW 13,4 C 21,2 C 0,0 km/h
22.09.2011 12:00 25,3 C 49 % 1019,2 hPa 0,0 l/m 0,0 km/h W 13,8 C 25,3 C 0,0 km/h
22.09.2011 13:00 25,3 C 46 % 1018,7 hPa 0,0 l/m 0,0 km/h N-NW 12,8 C 25,3 C 0,0 km/h
22.09.2011 14:00 25,2 C 45 % 1018,3 hPa 0,0 l/m 1,3 km/h NW 12,4 C 25,2 C 0,7 km/h
22.09.2011 15:00 24,0 C 46 % 1018,3 hPa 0,0 l/m 0,0 km/h N-NO 11,7 C 24,0 C 0,0 km/h
22.09.2011 16:00 25,3 C 42 % 1018,0 hPa 0,0 l/m 0,0 km/h W-NW 11,5 C 25,3 C 0,0 km/h
22.09.2011 17:00 28,9 C 37 % 1017,9 hPa 0,0 l/m 3,9 km/h N-NO 12,7 C 28,9 C 2,2 km/h
22.09.2011 18:00 24,3 C 45 % 1017,8 hPa 0,0 l/m 0,0 km/h N-NO 11,6 C 24,3 C 0,0 km/h
22.09.2011 19:00 16,9 C 64 % 1018,2 hPa 0,0 l/m 0,0 km/h SO 10,0 C 16,9 C 0,0 km/h
22.09.2011 20:00 15,5 C 72 % 1018,6 hPa 0,0 l/m 0,0 km/h SO 10,5 C 15,5 C 0,0 km/h
22.09.2011 21:00 13,3 C 78 % 1019,0 hPa 0,0 l/m 0,0 km/h SO 9,5 C 13,3 C 0,0 km/h
22.09.2011 22:00 12,2 C 82 % 1019,1 hPa 0,0 l/m 0,0 km/h SO 9,2 C 12,2 C 0,0 km/h
22.09.2011 23:00 11,5 C 83 % 1019,2 hPa 0,0 l/m 0,0 km/h N-NO 8,7 C 11,5 C 0,0 km/h
23.09.2011 00:00 11,8 C 83 % 1019,0 hPa 0,0 l/m 0,0 km/h N-NO 9,0 C 11,8 C 0,0 km/h
23.09.2011 01:00 11,6 C 83 % 1018,7 hPa 0,0 l/m 0,0 km/h SO 8,8 C 11,6 C 0,0 km/h
23.09.2011 02:00 11,6 C 83 % 1018,4 hPa 0,0 l/m 0,0 km/h NO 8,8 C 11,6 C 0,0 km/h
23.09.2011 03:00 11,3 C 84 % 1018,1 hPa 0,0 l/m 0,0 km/h O-SO 8,7 C 11,3 C 0,0 km/h
23.09.2011 04:00 10,7 C 84 % 1018,0 hPa 0,0 l/m 0,0 km/h O-NO 8,1 C 10,7 C 0,0 km/h
23.09.2011 05:00 11,2 C 84 % 1017,7 hPa 0,0 l/m 0,0 km/h O-NO 8,6 C 11,2 C 0,0 km/h
23.09.2011 06:00 10,5 C 84 % 1017,4 hPa 0,0 l/m 0,0 km/h O-NO 7,9 C 10,5 C 0,0 km/h
23.09.2011 07:00 10,3 C 84 % 1017,2 hPa 0,0 l/m 0,0 km/h O-NO 7,7 C 10,3 C 0,0 km/h
23.09.2011 08:00 12,1 C 82 % 1017,6 hPa 0,0 l/m 0,0 km/h W-NW 9,1 C 12,1 C 0,0 km/h
23.09.2011 09:00 14,8 C 83 % 1017,7 hPa 0,0 l/m 0,0 km/h W 11,9 C 14,8 C 0,0 km/h
23.09.2011 10:00 19,8 C 69 % 1017,5 hPa 0,0 l/m 5,2 km/h NW 13,9 C 19,8 C 2,9 km/h
23.09.2011 11:00 24,4 C 55 % 1017,1 hPa 0,0 l/m 0,0 km/h W-SW 14,8 C 24,4 C 0,0 km/h
23.09.2011 12:00 25,4 C 53 % 1016,7 hPa 0,0 l/m 0,0 km/h W-NW 15,1 C 25,4 C 0,0 km/h
23.09.2011 13:00 24,8 C 52 % 1015,9 hPa 0,0 l/m 1,9 km/h NW 14,3 C 24,8 C 1,1 km/h
23.09.2011 14:00 24,9 C 51 % 1015,4 hPa 0,0 l/m 19,4 km/h N-NO 14,1 C 22,6 C 10,8 km/h
23.09.2011 15:00 26,9 C 46 % 1015,0 hPa 0,0 l/m 4,5 km/h N-NW 14,3 C 26,9 C 2,5 km/h
23.09.2011 16:00 27,3 C 42 % 1014,7 hPa 0,0 l/m 8,4 km/h N-NO 13,2 C 26,9 C 4,7 km/h
23.09.2011 17:00 27,9 C 39 % 1014,5 hPa 0,0 l/m 1,3 km/h NW 12,6 C 27,9 C 0,7 km/h
23.09.2011 18:00 24,7 C 44 % 1014,6 hPa 0,0 l/m 0,0 km/h NW 11,6 C 24,7 C 0,0 km/h
23.09.2011 19:00 15,9 C 62 % 1014,8 hPa 0,0 l/m 0,0 km/h N-NW 8,6 C 15,9 C 0,0 km/h
23.09.2011 20:00 13,8 C 75 % 1015,1 hPa 0,0 l/m 0,0 km/h SO 9,4 C 13,8 C 0,0 km/h
23.09.2011 21:00 12,4 C 80 % 1015,2 hPa 0,0 l/m 0,0 km/h SO 9,0 C 12,4 C 0,0 km/h
23.09.2011 22:00 11,4 C 82 % 1015,1 hPa 0,0 l/m 0,0 km/h O-NO 8,4 C 11,4 C 0,0 km/h
23.09.2011 23:00 10,9 C 83 % 1015,0 hPa 0,0 l/m 0,0 km/h O-NO 8,1 C 10,9 C 0,0 km/h
24.09.2011 00:00 10,1 C 83 % 1014,9 hPa 0,0 l/m 0,0 km/h O-NO 7,3 C 10,1 C 0,0 km/h
24.09.2011 01:00 9,1 C 84 % 1014,7 hPa 0,0 l/m 0,0 km/h N-NO 6,5 C 9,1 C 0,0 km/h
24.09.2011 02:00 8,9 C 84 % 1014,5 hPa 0,0 l/m 0,0 km/h N-NO 6,3 C 8,9 C 0,0 km/h
24.09.2011 03:00 8,4 C 83 % 1014,3 hPa 0,0 l/m 0,0 km/h NO 5,7 C 8,4 C 0,0 km/h
24.09.2011 04:00 7,9 C 83 % 1014,2 hPa 0,0 l/m 0,0 km/h NO 5,2 C 7,9 C 0,0 km/h
24.09.2011 05:00 7,6 C 83 % 1014,1 hPa 0,0 l/m 0,0 km/h N-NO 4,9 C 7,6 C 0,0 km/h
24.09.2011 06:00 7,3 C 83 % 1014,0 hPa 0,0 l/m 0,0 km/h NO 4,6 C 7,3 C 0,0 km/h
24.09.2011 07:00 7,4 C 82 % 1014,2 hPa 0,0 l/m 0,0 km/h NO 4,5 C 7,4 C 0,0 km/h
24.09.2011 08:00 8,4 C 82 % 1014,5 hPa 0,0 l/m 0,0 km/h S-SW 5,5 C 8,4 C 0,0 km/h
24.09.2011 09:00 13,6 C 73 % 1014,6 hPa 0,0 l/m 0,0 km/h W-SW 8,9 C 13,6 C 0,0 km/h
24.09.2011 10:00 20,1 C 67 % 1014,5 hPa 0,0 l/m 0,0 km/h W-NW 13,8 C 20,1 C 0,0 km/h
24.09.2011 11:00 24,2 C 54 % 1014,1 hPa 0,0 l/m 0,0 km/h N-NW 14,3 C 24,2 C 0,0 km/h
24.09.2011 12:00 26,0 C 50 % 1013,9 hPa 0,0 l/m 0,0 km/h W 14,8 C 26,0 C 0,0 km/h
24.09.2011 13:00 25,9 C 50 % 1013,9 hPa 0,0 l/m 0,0 km/h S-SW 14,7 C 25,9 C 0,0 km/h
24.09.2011 14:00 26,4 C 48 % 1013,5 hPa 0,0 l/m 0,0 km/h SW 14,5 C 26,4 C 0,0 km/h
24.09.2011 15:00 29,6 C 40 % 1012,8 hPa 0,0 l/m 0,0 km/h S 14,5 C 29,6 C 0,0 km/h
24.09.2011 16:00 32,5 C 34 % 1012,8 hPa 0,0 l/m 0,0 km/h W 14,6 C 32,5 C 0,0 km/h
24.09.2011 17:00 32,5 C 32 % 1012,9 hPa 0,0 l/m 0,0 km/h NW 13,6 C 32,5 C 0,0 km/h
24.09.2011 18:00 30,6 C 39 % 1012,9 hPa 0,0 l/m 0,0 km/h SO 15,0 C 30,6 C 0,0 km/h
24.09.2011 19:00 18,7 C 64 % 1013,4 hPa 0,0 l/m 0,0 km/h SO 11,7 C 18,7 C 0,0 km/h
24.09.2011 20:00 15,9 C 74 % 1013,8 hPa 0,0 l/m 0,0 km/h NO 11,3 C 15,9 C 0,0 km/h
24.09.2011 21:00 14,6 C 78 % 1014,4 hPa 0,0 l/m 0,0 km/h NO 10,8 C 14,6 C 0,0 km/h
24.09.2011 22:00 14,1 C 80 % 1014,4 hPa 0,0 l/m 0,0 km/h SO 10,7 C 14,1 C 0,0 km/h
24.09.2011 23:00 13,5 C 81 % 1014,9 hPa 0,0 l/m 0,0 km/h O 10,3 C 13,5 C 0,0 km/h
25.09.2011 00:00 12,2 C 82 % 1015,3 hPa 0,0 l/m 0,0 km/h O 9,2 C 12,2 C 0,0 km/h
25.09.2011 01:00 11,5 C 83 % 1015,5 hPa 0,0 l/m 0,0 km/h O-NO 8,7 C 11,5 C 0,0 km/h
25.09.2011 02:00 11,6 C 83 % 1015,9 hPa 0,0 l/m 0,0 km/h O-SO 8,8 C 11,6 C 0,0 km/h
25.09.2011 03:00 11,9 C 83 % 1015,9 hPa 0,0 l/m 0,0 km/h SO 9,1 C 11,9 C 0,0 km/h
25.09.2011 04:00 11,1 C 83 % 1016,2 hPa 0,0 l/m 0,0 km/h SO 8,3 C 11,1 C 0,0 km/h
25.09.2011 05:00 10,8 C 83 % 1016,3 hPa 0,0 l/m 0,0 km/h O-NO 8,0 C 10,8 C 0,0 km/h
25.09.2011 06:00 10,5 C 82 % 1016,6 hPa 0,0 l/m 0,0 km/h O-SO 7,6 C 10,5 C 0,0 km/h
25.09.2011 07:00 9,7 C 82 % 1016,7 hPa 0,0 l/m 0,0 km/h O-NO 6,8 C 9,7 C 0,0 km/h
25.09.2011 08:00 10,9 C 81 % 1017,0 hPa 0,0 l/m 0,0 km/h O-NO 7,8 C 10,9 C 0,0 km/h
25.09.2011 09:00 16,3 C 79 % 1017,5 hPa 0,0 l/m 0,0 km/h S-SO 12,6 C 16,3 C 0,0 km/h
25.09.2011 10:00 23,0 C 68 % 1017,7 hPa 0,0 l/m 0,0 km/h N-NO 16,8 C 23,0 C 0,0 km/h
25.09.2011 11:00 26,7 C 55 % 1017,7 hPa 0,0 l/m 0,0 km/h N 16,9 C 26,7 C 0,0 km/h
25.09.2011 12:00 29,3 C 47 % 1017,8 hPa 0,0 l/m 0,0 km/h W 16,8 C 29,3 C 0,0 km/h
25.09.2011 13:00 28,2 C 47 % 1017,6 hPa 0,0 l/m 0,0 km/h N-NW 15,8 C 28,2 C 0,0 km/h
25.09.2011 14:00 29,7 C 43 % 1017,6 hPa 0,0 l/m 0,0 km/h N 15,8 C 29,7 C 0,0 km/h
25.09.2011 15:00 32,1 C 37 % 1017,4 hPa 0,0 l/m 0,0 km/h W 15,5 C 32,1 C 0,0 km/h
25.09.2011 16:00 33,9 C 28 % 1017,4 hPa 0,0 l/m 0,0 km/h N-NO 12,8 C 33,9 C 0,0 km/h
25.09.2011 17:00 34,1 C 31 % 1017,7 hPa 0,0 l/m 0,0 km/h NW 14,5 C 34,1 C 0,0 km/h
25.09.2011 18:00 31,2 C 37 % 1017,7 hPa 0,0 l/m 0,0 km/h SO 14,8 C 31,2 C 0,0 km/h
25.09.2011 19:00 19,4 C 62 % 1018,2 hPa 0,0 l/m 18,8 km/h SO 11,9 C 15,7 C 10,4 km/h
25.09.2011 20:00 16,3 C 73 % 1018,9 hPa 0,0 l/m 0,0 km/h SO 11,4 C 16,3 C 0,0 km/h
25.09.2011 21:00 14,8 C 78 % 1019,4 hPa 0,0 l/m 0,0 km/h O-NO 11,0 C 14,8 C 0,0 km/h
25.09.2011 22:00 14,1 C 79 % 1019,3 hPa 0,0 l/m 0,0 km/h O-NO 10,5 C 14,1 C 0,0 km/h
25.09.2011 23:00 13,6 C 81 % 1019,5 hPa 0,0 l/m 0,0 km/h NO 10,4 C 13,6 C 0,0 km/h
Min-Datum _ 20.09.11 25.09.11 19.09.11 - 19.09.11 - 20.09.11 20.09.11 19.09.11
_ Min-Zeit 06:30 16:30 04:30 - 01:30 - 06:30 22:30 01:30
Minimum _ 6,1 C 28 % 1008,4 hPa - 0,0 km/h - 3,6 C 2,3 C 0,0 km/h
Max-Datum _ 25.09.11 19.09.11 20.09.11 19.09.11 20.09.11 - 25.09.11 25.09.11 20.09.11
_ Max-Zeit 17:30 00:30 10:30 15:30 22:30 - 11:30 17:30 22:30
Maximum _ 34,1 C 84 % 1023,9 hPa 0,7 l/m 25,3 km/h
SO
- 16,9 C 34,1 C 14,0 km/h
SO
Durchschnitt _ 16,1 C 69 % 1017,1 hPa #1,8 l/m 1,0 km/h SO 9,7 C 16,0 C 0,6 km/h
www.sexauwetter.de